Time;durP1;ratioP1;P1;durP2;ratioP2;P2;SDS_P1;SDS_P2;PMS_P1;PMS_P2;Temp;Humidity;BMP_temperature;BMP_pressure;BME280_temperature;BME280_humidity;BME280_pressure;Samples;Min_cycle;Max_cycle;Signal;HPM_P1;HPM_P2
2022/07/12 00:00:14;;;;;;;2.60;2.40;;;13.20;99.90;;;;;;7361312;32;20612;-60
2022/07/12 00:04:16;;;;;;;4.18;2.90;;;13.20;99.90;;;;;;7362621;32;20170;-61
2022/07/12 00:08:18;;;;;;;5.62;3.00;;;13.10;99.90;;;;;;7360853;32;20156;-61
2022/07/12 00:12:34;;;;;;;4.80;2.85;;;13.10;99.90;;;;;;7361573;32;20270;-61
2022/07/12 00:16:36;;;;;;;4.05;3.25;;;13.00;99.90;;;;;;7361909;32;20111;-60
2022/07/12 00:20:38;;;;;;;6.80;3.70;;;13.00;99.90;;;;;;7359953;32;20571;-60
2022/07/12 00:24:40;;;;;;;4.87;3.15;;;13.00;99.90;;;;;;7362064;32;20703;-61
2022/07/12 00:28:42;;;;;;;7.37;4.45;;;12.90;99.90;;;;;;7359925;32;20107;-61
2022/07/12 00:32:44;;;;;;;7.32;3.15;;;12.90;99.90;;;;;;7361688;32;20111;-60
2022/07/12 00:36:45;;;;;;;5.37;3.08;;;12.80;99.90;;;;;;7361356;32;20578;-61
2022/07/12 00:40:47;;;;;;;7.25;3.45;;;12.80;99.90;;;;;;7360026;32;20135;-61
2022/07/12 00:44:49;;;;;;;9.55;4.00;;;12.80;99.90;;;;;;7360726;32;20167;-61
2022/07/12 00:48:51;;;;;;;3.12;2.85;;;12.80;99.90;;;;;;7359652;32;20111;-61
2022/07/12 00:52:54;;;;;;;4.03;2.92;;;12.70;99.90;;;;;;7360577;32;20139;-60
2022/07/12 00:56:57;;;;;;;6.53;3.10;;;12.60;99.90;;;;;;7357002;32;20197;-61
2022/07/12 01:00:59;;;;;;;5.95;3.17;;;12.60;99.90;;;;;;7359629;32;20532;-61
2022/07/12 01:05:02;;;;;;;3.75;3.37;;;12.50;99.90;;;;;;7360490;32;20111;-61
2022/07/12 01:09:04;;;;;;;5.00;3.10;;;12.50;99.90;;;;;;7359389;32;20107;-61
2022/07/12 01:13:06;;;;;;;8.07;3.60;;;12.50;99.90;;;;;;7360036;32;20425;-61
2022/07/12 01:17:08;;;;;;;5.72;3.60;;;12.50;99.90;;;;;;7359379;32;20153;-60
2022/07/12 01:21:21;;;;;;;5.95;3.90;;;12.50;99.90;;;;;;7359478;32;20255;-61
2022/07/12 01:25:24;;;;;;;7.45;3.42;;;12.40;99.90;;;;;;7359660;32;20107;-61
2022/07/12 01:29:26;;;;;;;6.37;3.30;;;12.30;99.90;;;;;;7359581;32;20110;-61
2022/07/12 01:33:28;;;;;;;7.22;3.25;;;12.30;99.90;;;;;;7359635;32;20103;-61
2022/07/12 01:37:38;;;;;;;5.80;3.72;;;12.30;99.90;;;;;;7359153;32;20576;-61
2022/07/12 01:41:40;;;;;;;9.10;3.65;;;12.20;99.90;;;;;;7359850;32;20135;-61
2022/07/12 01:45:42;;;;;;;4.60;3.40;;;12.20;99.90;;;;;;7359183;32;20115;-61
2022/07/12 01:49:44;;;;;;;5.20;3.62;;;12.20;99.90;;;;;;7358529;32;20179;-61
2022/07/12 01:53:46;;;;;;;5.57;3.62;;;12.10;99.90;;;;;;7359635;32;20775;-61
2022/07/12 01:57:48;;;;;;;4.62;3.45;;;12.10;99.90;;;;;;7344528;32;20107;-60
2022/07/12 02:01:50;;;;;;;7.22;4.12;;;12.10;99.90;;;;;;7334037;32;20210;-60
2022/07/12 02:05:52;;;;;;;7.57;4.05;;;12.10;99.90;;;;;;7339305;32;20115;-60
2022/07/12 02:09:54;;;;;;;7.50;3.70;;;12.00;99.90;;;;;;7358508;32;20126;-60
2022/07/12 02:13:56;;;;;;;6.68;3.72;;;12.00;99.90;;;;;;7359193;32;20111;-60
2022/07/12 02:17:58;;;;;;;6.50;3.90;;;11.90;99.90;;;;;;7357793;32;20469;-60
2022/07/12 02:22:00;;;;;;;7.85;3.30;;;12.00;99.90;;;;;;7358328;32;20110;-61
2022/07/12 02:26:01;;;;;;;4.15;3.45;;;12.00;99.90;;;;;;7358117;32;20145;-60
2022/07/12 02:30:04;;;;;;;6.32;3.35;;;11.90;99.90;;;;;;7357995;32;20476;-60
2022/07/12 02:34:06;;;;;;;5.12;3.53;;;11.80;99.90;;;;;;7358195;32;20533;-60
2022/07/12 02:38:15;;;;;;;3.80;3.25;;;11.80;99.90;;;;;;7357229;32;20107;-60
2022/07/12 02:42:17;;;;;;;4.93;3.65;;;11.80;99.90;;;;;;7358602;32;20183;-60
2022/07/12 02:46:19;;;;;;;6.55;3.50;;;11.80;99.90;;;;;;7356004;32;20135;-60
2022/07/12 02:50:21;;;;;;;9.13;3.70;;;11.70;99.90;;;;;;7362245;32;20210;-60
2022/07/12 02:54:23;;;;;;;4.78;3.33;;;11.60;99.90;;;;;;7352409;32;20501;-60
2022/07/12 02:58:25;;;;;;;6.95;3.45;;;11.60;99.90;;;;;;7354555;32;20123;-60
2022/07/12 03:02:26;;;;;;;6.50;3.60;;;11.60;99.90;;;;;;7362771;32;20171;-60
2022/07/12 03:06:28;;;;;;;8.15;3.50;;;11.60;99.90;;;;;;7363110;32;20185;-60
2022/07/12 03:10:30;;;;;;;7.35;3.33;;;11.60;99.90;;;;;;7362021;32;20125;-61
2022/07/12 03:14:32;;;;;;;4.47;3.72;;;11.50;99.90;;;;;;7361406;32;20556;-60
2022/07/12 03:18:34;;;;;;;5.07;3.60;;;11.50;99.90;;;;;;7362257;32;20128;-61
2022/07/12 03:22:35;;;;;;;6.03;3.25;;;11.50;99.90;;;;;;7362779;32;20550;-61
2022/07/12 03:26:37;;;;;;;5.93;3.75;;;11.50;99.90;;;;;;7362656;32;20127;-61
2022/07/12 03:30:39;;;;;;;5.35;3.08;;;11.40;99.90;;;;;;7360848;32;20168;-61
2022/07/12 03:34:41;;;;;;;8.60;3.15;;;11.40;99.90;;;;;;7362462;32;20201;-61
2022/07/12 03:38:42;;;;;;;4.60;3.67;;;11.40;99.90;;;;;;7361686;32;20122;-60
2022/07/12 03:42:45;;;;;;;5.78;3.58;;;11.40;99.90;;;;;;7361701;32;20156;-60
2022/07/12 03:46:47;;;;;;;6.50;3.58;;;11.40;99.90;;;;;;7362497;32;20126;-61
2022/07/12 03:50:50;;;;;;;5.90;3.83;;;11.40;99.90;;;;;;7361733;32;20127;-61
2022/07/12 03:54:51;;;;;;;8.02;3.35;;;11.40;99.90;;;;;;7361402;32;20115;-62
2022/07/12 03:58:53;;;;;;;9.00;4.03;;;11.50;99.90;;;;;;7340281;32;20112;-61
2022/07/12 04:02:55;;;;;;;5.07;3.67;;;11.50;99.90;;;;;;7341768;32;20138;-61
2022/07/12 04:06:57;;;;;;;8.43;3.72;;;11.70;99.90;;;;;;7362207;32;20107;-61
2022/07/12 04:10:59;;;;;;;11.32;3.90;;;11.50;99.90;;;;;;7360967;32;20111;-60
2022/07/12 04:15:02;;;;;;;6.25;3.70;;;11.50;99.90;;;;;;7360881;32;20626;-60
2022/07/12 04:19:05;;;;;;;9.75;3.78;;;11.50;99.90;;;;;;7361380;32;20176;-61
2022/07/12 04:23:09;;;;;;;7.55;4.07;;;11.50;99.90;;;;;;7361171;32;20130;-61
2022/07/12 04:27:10;;;;;;;8.43;3.83;;;11.60;99.90;;;;;;7361321;32;20306;-61
2022/07/12 04:31:12;;;;;;;5.87;3.65;;;11.70;99.90;;;;;;7360286;32;20628;-61
2022/07/12 04:35:14;;;;;;;6.10;3.78;;;11.80;99.90;;;;;;7361041;32;20126;-61
2022/07/12 04:39:16;;;;;;;9.82;3.85;;;11.90;99.90;;;;;;7348203;32;20139;-61
2022/07/12 04:43:17;;;;;;;9.60;3.78;;;12.10;99.90;;;;;;7352941;32;20107;-61
2022/07/12 04:47:19;;;;;;;6.22;2.97;;;12.30;99.90;;;;;;7359959;32;20536;-65
2022/07/12 04:51:21;;;;;;;8.77;4.10;;;12.70;99.90;;;;;;7359837;32;20496;-65
2022/07/12 04:55:22;;;;;;;4.90;2.97;;;13.00;99.90;;;;;;7359741;32;20199;-65
2022/07/12 04:59:25;;;;;;;7.03;3.28;;;13.50;99.90;;;;;;7334616;32;20539;-65
2022/07/12 05:03:26;;;;;;;9.52;3.33;;;14.10;99.90;;;;;;7340520;32;20163;-66
2022/07/12 05:07:43;;;;;;;8.60;2.97;;;14.70;99.90;;;;;;7358954;32;20119;-65
2022/07/12 05:11:47;;;;;;;8.60;2.87;;;15.40;99.90;;;;;;7360492;32;20111;-65
2022/07/12 05:15:49;;;;;;;6.78;3.15;;;16.20;99.90;;;;;;7359351;32;20107;-66
2022/07/12 05:19:51;;;;;;;10.80;3.00;;;16.90;99.90;;;;;;7358850;32;20202;-66
2022/07/12 05:23:53;;;;;;;4.05;2.40;;;17.50;99.90;;;;;;7359293;32;20119;-66
2022/07/12 05:27:54;;;;;;;5.78;2.50;;;18.10;99.90;;;;;;7359155;32;20429;-65
2022/07/12 05:31:57;;;;;;;12.07;4.25;;;18.20;99.90;;;;;;7358701;32;20283;-66
2022/07/12 05:35:59;;;;;;;7.53;5.80;;;18.70;99.90;;;;;;7358459;32;20099;-65
2022/07/12 05:40:00;;;;;;;9.98;7.45;;;19.40;99.90;;;;;;7358291;32;20706;-65
2022/07/12 05:44:02;;;;;;;7.35;6.45;;;20.00;99.90;;;;;;7358962;32;20186;-66
2022/07/12 05:48:04;;;;;;;9.13;7.07;;;20.30;99.90;;;;;;7357705;32;20163;-66
2022/07/12 05:56:26;;;;;;;7.72;6.93;;;21.10;99.90;;;;;;7340691;32;20104;-66
2022/07/12 06:00:28;;;;;;;10.40;7.07;;;21.40;99.90;;;;;;7355578;32;20138;-66
2022/07/12 06:04:30;;;;;;;8.25;6.45;;;21.70;99.90;;;;;;7358179;32;20111;-66
2022/07/12 06:08:31;;;;;;;6.90;5.35;;;21.70;99.90;;;;;;7357038;32;20118;-66
2022/07/12 06:12:33;;;;;;;8.93;5.47;;;22.20;99.90;;;;;;7358280;32;20107;-66
2022/07/12 06:16:35;;;;;;;7.03;5.78;;;22.40;99.90;;;;;;7358488;32;20199;-66
2022/07/12 06:20:37;;;;;;;5.65;4.70;;;22.80;99.90;;;;;;7356471;32;20642;-66
2022/07/12 06:24:38;;;;;;;6.87;4.62;;;23.40;99.90;;;;;;7358238;32;20137;-66
2022/07/12 06:28:41;;;;;;;7.50;4.57;;;23.80;99.90;;;;;;7357344;32;20116;-66
2022/07/12 06:32:44;;;;;;;6.78;4.00;;;24.20;99.90;;;;;;7358465;32;20547;-66
2022/07/12 06:36:46;;;;;;;4.30;3.90;;;24.60;99.90;;;;;;7357943;32;20418;-67
2022/07/12 06:40:48;;;;;;;10.40;8.05;;;24.90;99.90;;;;;;7357248;32;20183;-66
2022/07/12 06:44:49;;;;;;;5.15;3.78;;;25.00;99.90;;;;;;7357908;32;20466;-65
2022/07/12 06:48:51;;;;;;;4.32;3.92;;;25.30;99.90;;;;;;7356779;32;20329;-64
2022/07/12 06:52:53;;;;;;;6.30;3.60;;;25.40;99.90;;;;;;7357575;32;20172;-65
2022/07/12 06:56:55;;;;;;;6.82;4.10;;;25.80;99.90;;;;;;7343066;32;20103;-65
2022/07/12 07:00:57;;;;;;;4.70;3.45;;;26.10;99.90;;;;;;7356899;32;20195;-65
2022/07/12 07:04:59;;;;;;;3.92;3.30;;;26.20;99.90;;;;;;7357036;32;20134;-66
2022/07/12 07:09:01;;;;;;;4.15;3.17;;;26.50;99.90;;;;;;7356137;32;20191;-65
2022/07/12 07:13:02;;;;;;;5.87;3.40;;;26.40;99.90;;;;;;7357088;32;20178;-66
2022/07/12 07:17:04;;;;;;;4.55;4.00;;;25.90;99.90;;;;;;7356298;32;20107;-66
2022/07/12 07:21:06;;;;;;;4.00;3.62;;;25.90;99.90;;;;;;7356107;32;20316;-66
2022/07/12 07:25:08;;;;;;;3.78;3.40;;;26.40;99.90;;;;;;7357050;32;20349;-66
2022/07/12 07:33:30;;;;;;;5.30;3.20;;;25.20;99.90;;;;;;7361618;32;20133;-66
2022/07/12 07:37:35;;;;;;;4.82;2.92;;;25.00;99.90;;;;;;7360773;32;20168;-66
2022/07/12 07:41:37;;;;;;;4.45;2.50;;;25.30;99.90;;;;;;7360996;32;20119;-66
2022/07/12 07:45:38;;;;;;;4.47;2.80;;;25.00;99.90;;;;;;7360763;32;20188;-66
2022/07/12 07:49:40;;;;;;;4.90;3.53;;;24.80;99.90;;;;;;7358795;32;20538;-66
2022/07/12 07:53:46;;;;;;;4.63;3.87;;;24.60;99.90;;;;;;7355241;32;20448;-66
2022/07/12 07:57:48;;;;;;;6.37;3.80;;;24.00;99.90;;;;;;7338396;32;20127;-66
2022/07/12 08:01:53;;;;;;;4.75;3.10;;;23.80;99.90;;;;;;7335579;32;20104;-66
2022/07/12 08:05:57;;;;;;;6.87;3.80;;;23.50;99.90;;;;;;7341817;32;20146;-66
2022/07/12 08:09:59;;;;;;;5.43;3.50;;;23.50;99.90;;;;;;7360476;32;20102;-66
2022/07/12 08:14:01;;;;;;;5.10;3.33;;;23.50;99.90;;;;;;7359340;32;20163;-66
2022/07/12 08:18:03;;;;;;;6.05;3.05;;;23.70;99.90;;;;;;7359110;32;20256;-66
2022/07/12 08:22:05;;;;;;;6.30;3.80;;;23.90;99.90;;;;;;7360618;32;20156;-66
2022/07/12 08:26:07;;;;;;;7.32;3.58;;;24.20;99.90;;;;;;7360566;32;20186;-67
2022/07/12 08:30:10;;;;;;;5.25;3.10;;;24.90;99.90;;;;;;7359589;32;20175;-67
2022/07/12 08:34:12;;;;;;;5.97;3.47;;;25.30;99.90;;;;;;7359950;32;20171;-66
2022/07/12 08:38:15;;;;;;;7.50;2.65;;;25.30;99.90;;;;;;7358987;32;20525;-66
2022/07/12 08:42:18;;;;;;;5.53;2.62;;;26.00;99.90;;;;;;7359178;32;20106;-66
2022/07/12 08:46:20;;;;;;;5.60;3.12;;;26.60;99.90;;;;;;7359416;32;20171;-65
2022/07/12 08:50:30;;;;;;;5.35;3.33;;;26.80;99.90;;;;;;7358764;32;20250;-66
2022/07/12 08:54:39;;;;;;;5.18;3.00;;;27.30;99.90;;;;;;7357686;32;20111;-66
2022/07/12 08:58:41;;;;;;;4.28;2.50;;;27.60;99.90;;;;;;7339315;32;20111;-66
2022/07/12 09:02:59;;;;;;;4.65;2.40;;;27.80;99.90;;;;;;7334155;32;20170;-66
2022/07/12 09:07:14;;;;;;;3.00;1.83;;;28.40;99.90;;;;;;7358866;32;20759;-66
2022/07/12 09:11:16;;;;;;;3.72;2.00;;;28.60;99.90;;;;;;7358635;32;20099;-66
2022/07/12 09:15:20;;;;;;;3.00;1.50;;;29.30;99.90;;;;;;7359160;32;20115;-66
2022/07/12 09:19:22;;;;;;;6.78;1.62;;;29.50;99.90;;;;;;7358367;32;20219;-66
2022/07/12 09:23:24;;;;;;;1.70;1.10;;;29.00;99.80;;;;;;7358769;32;20131;-66
2022/07/12 09:27:26;;;;;;;1.87;1.17;;;29.40;99.90;;;;;;7358700;32;20199;-66
2022/07/12 09:36:17;;;;;;;2.72;1.30;;;27.90;97.50;;;;;;7357714;32;20167;-65
2022/07/12 09:40:20;;;;;;;2.28;1.20;;;27.40;98.00;;;;;;7358187;32;20329;-66
2022/07/12 09:44:23;;;;;;;2.25;1.85;;;28.00;98.50;;;;;;7357960;32;20226;-66
2022/07/12 09:48:28;;;;;;;1.62;1.20;;;28.60;98.60;;;;;;7353976;32;20103;-66
2022/07/12 09:52:33;;;;;;;2.42;1.10;;;29.10;98.70;;;;;;7332237;32;20132;-66
2022/07/12 09:56:37;;;;;;;2.83;1.60;;;29.50;96.10;;;;;;7336980;32;20134;-66
2022/07/12 10:00:39;;;;;;;4.85;1.50;;;29.70;95.10;;;;;;7331817;32;20111;-66
2022/07/12 10:04:41;;;;;;;1.40;0.80;;;29.80;91.70;;;;;;7332604;32;20133;-66
2022/07/12 10:08:44;;;;;;;1.08;0.75;;;29.80;91.10;;;;;;7356120;32;20439;-66
2022/07/12 10:12:46;;;;;;;1.52;1.12;;;30.20;94.20;;;;;;7357860;32;20111;-65
2022/07/12 10:16:52;;;;;;;1.60;1.17;;;29.40;92.10;;;;;;7357742;32;20115;-66
2022/07/12 10:20:54;;;;;;;;;;;29.20;90.60;;;;;;7357167;32;20111;-66
2022/07/12 10:24:56;;;;;;;1.45;0.98;;;28.90;89.80;;;;;;7357813;32;20006;-66
2022/07/12 10:29:04;;;;;;;2.05;0.90;;;28.50;93.10;;;;;;7356410;32;20176;-65
2022/07/12 10:33:19;;;;;;;1.73;0.93;;;29.10;91.60;;;;;;7356681;32;20115;-66
2022/07/12 10:37:21;;;;;;;2.37;0.90;;;28.60;93.90;;;;;;7357266;32;20451;-66
2022/07/12 10:41:23;;;;;;;1.67;1.00;;;28.70;94.60;;;;;;7356339;32;20119;-66
2022/07/12 10:45:30;;;;;;;2.78;1.30;;;29.10;94.20;;;;;;7357608;32;20408;-66
2022/07/12 10:49:33;;;;;;;1.87;1.10;;;29.20;92.20;;;;;;7356444;32;20139;-66
2022/07/12 10:53:40;;;;;;;3.03;0.85;;;27.60;91.70;;;;;;7352486;32;20186;-67
2022/07/12 10:57:50;;;;;;;2.03;0.80;;;27.10;94.40;;;;;;7344155;32;20270;-66
2022/07/12 11:01:55;;;;;;;2.12;1.02;;;27.70;94.60;;;;;;7356943;32;20527;-66
2022/07/12 11:06:04;;;;;;;2.92;1.20;;;28.10;95.20;;;;;;7359808;32;20179;-66
2022/07/12 11:10:06;;;;;;;2.28;0.95;;;28.60;95.50;;;;;;7361235;32;20135;-66
2022/07/12 11:14:07;;;;;;;1.35;1.20;;;28.50;92.90;;;;;;7362447;32;20108;-67
2022/07/12 11:18:30;;;;;;;1.17;0.85;;;29.00;92.40;;;;;;7361987;32;20717;-67
2022/07/12 11:22:32;;;;;;;2.90;0.90;;;28.90;91.50;;;;;;7361766;32;20658;-67
2022/07/12 11:26:35;;;;;;;2.87;1.30;;;29.00;92.00;;;;;;7362238;32;20163;-67
2022/07/12 11:30:37;;;;;;;1.55;1.00;;;29.10;90.60;;;;;;7360798;32;20171;-65
2022/07/12 11:34:38;;;;;;;2.42;1.02;;;29.00;92.00;;;;;;7361679;32;20182;-65
2022/07/12 11:38:43;;;;;;;2.30;1.02;;;29.00;90.90;;;;;;7360966;32;20171;-66
2022/07/12 11:42:53;;;;;;;4.35;0.82;;;28.60;91.80;;;;;;7361346;32;20115;-65
2022/07/12 11:46:56;;;;;;;2.80;0.95;;;28.70;90.40;;;;;;7361647;32;20167;-66
2022/07/12 11:51:02;;;;;;;1.10;0.98;;;28.50;91.00;;;;;;7361153;32;20103;-66
2022/07/12 11:55:07;;;;;;;3.20;1.03;;;28.90;88.00;;;;;;7359310;32;20569;-66
2022/07/12 11:59:09;;;;;;;0.95;0.85;;;28.70;89.50;;;;;;7360706;32;20178;-67
2022/07/12 12:03:12;;;;;;;4.65;1.00;;;28.60;90.40;;;;;;7359722;32;20180;-66
2022/07/12 12:07:18;;;;;;;1.50;1.10;;;28.90;89.90;;;;;;7361204;32;20532;-66
2022/07/12 12:11:28;;;;;;;1.43;1.00;;;28.80;88.30;;;;;;7359759;32;20503;-66
2022/07/12 12:15:32;;;;;;;1.58;0.98;;;28.60;90.50;;;;;;7338391;32;20179;-66
2022/07/12 12:19:42;;;;;;;1.55;0.80;;;28.30;82.30;;;;;;7359963;32;20166;-65
2022/07/12 12:23:44;;;;;;;2.83;0.98;;;28.30;87.40;;;;;;7359992;32;20236;-66
2022/07/12 12:27:48;;;;;;;3.47;1.00;;;28.40;84.80;;;;;;7358684;32;20130;-65
2022/07/12 12:32:17;;;;;;;1.98;1.00;;;28.70;85.30;;;;;;7360712;32;20107;-66
2022/07/12 12:36:26;;;;;;;2.83;1.10;;;28.70;85.20;;;;;;7359178;32;20112;-65
2022/07/12 12:40:34;;;;;;;3.90;1.50;;;28.30;83.60;;;;;;7357781;32;20440;-66
2022/07/12 12:44:36;;;;;;;0.98;0.82;;;28.50;83.80;;;;;;7359875;32;20321;-66
2022/07/12 12:48:46;;;;;;;4.03;0.93;;;28.60;78.90;;;;;;7357160;32;20103;-66
2022/07/12 12:52:48;;;;;;;2.85;1.15;;;28.30;82.10;;;;;;7359850;32;20182;-65
2022/07/12 12:56:51;;;;;;;1.33;0.98;;;28.50;81.90;;;;;;7341008;32;20111;-67
2022/07/12 13:00:55;;;;;;;2.05;0.93;;;28.30;79.20;;;;;;7357947;32;20175;-65
2022/07/12 13:04:56;;;;;;;2.42;1.00;;;28.20;77.60;;;;;;7358693;32;20208;-66
2022/07/12 13:08:58;;;;;;;3.92;1.05;;;28.10;78.30;;;;;;7357516;32;20115;-66
2022/07/12 13:13:02;;;;;;;3.03;1.10;;;28.10;77.10;;;;;;7358985;32;20111;-67
2022/07/12 13:17:04;;;;;;;2.17;1.10;;;28.20;78.60;;;;;;7359113;32;20103;-67
2022/07/12 13:21:06;;;;;;;2.33;1.10;;;28.50;79.90;;;;;;7357883;32;20171;-66
2022/07/12 13:25:11;;;;;;;3.42;1.35;;;28.50;80.20;;;;;;7359105;32;20135;-66
2022/07/12 13:29:13;;;;;;;4.22;1.37;;;28.70;74.00;;;;;;7357479;32;20156;-67
2022/07/12 13:33:16;;;;;;;3.00;1.70;;;28.40;75.10;;;;;;7358253;32;20644;-66
2022/07/12 13:37:17;;;;;;;3.60;1.58;;;28.60;81.30;;;;;;7358447;32;20548;-66
2022/07/12 13:41:19;;;;;;;6.57;1.75;;;29.00;75.30;;;;;;7356582;32;20128;-67
2022/07/12 13:45:23;;;;;;;2.42;2.03;;;28.90;74.80;;;;;;7358355;32;20547;-66
2022/07/12 13:49:25;;;;;;;2.92;1.73;;;29.30;75.80;;;;;;7357378;32;20181;-66
2022/07/12 13:53:27;;;;;;;2.45;1.40;;;28.90;77.70;;;;;;7358156;32;20162;-66
2022/07/12 13:57:29;;;;;;;3.92;2.03;;;29.20;78.10;;;;;;7345875;32;20180;-66
2022/07/12 14:01:30;;;;;;;3.15;1.60;;;29.00;77.20;;;;;;7349918;32;20123;-66
2022/07/12 14:05:33;;;;;;;4.20;1.90;;;29.30;77.40;;;;;;7358063;32;20167;-66
2022/07/12 14:09:34;;;;;;;4.62;1.83;;;29.50;78.10;;;;;;7356093;32;20130;-66
2022/07/12 14:13:36;;;;;;;3.92;1.92;;;29.60;74.70;;;;;;7357647;32;20172;-66
2022/07/12 14:17:43;;;;;;;3.12;2.12;;;29.50;77.30;;;;;;7357019;32;20126;-66
2022/07/12 14:21:45;;;;;;;2.50;2.00;;;29.30;74.80;;;;;;7357050;32;20131;-66
2022/07/12 14:25:47;;;;;;;4.32;1.90;;;29.50;77.40;;;;;;7358085;32;20107;-66
2022/07/12 14:29:48;;;;;;;9.27;1.80;;;29.40;74.90;;;;;;7356994;32;20111;-66
2022/07/12 14:33:51;;;;;;;3.87;2.00;;;29.60;75.70;;;;;;7357051;32;20119;-66
2022/07/12 14:37:52;;;;;;;3.25;1.98;;;29.80;71.20;;;;;;7356705;32;20265;-66
2022/07/12 14:41:55;;;;;;;4.43;2.00;;;29.70;75.00;;;;;;7361999;32;20119;-66
2022/07/12 14:45:57;;;;;;;6.78;1.90;;;29.80;73.60;;;;;;7362496;32;20497;-66
2022/07/12 14:50:00;;;;;;;2.60;2.03;;;29.60;75.80;;;;;;7361731;32;20186;-66
2022/07/12 14:54:02;;;;;;;3.33;1.60;;;29.20;77.70;;;;;;7354836;32;20195;-67
2022/07/12 14:58:04;;;;;;;3.72;1.98;;;29.10;76.80;;;;;;7351815;32;20121;-67
2022/07/12 15:02:05;;;;;;;3.08;1.55;;;28.90;73.30;;;;;;7361693;32;20531;-66
2022/07/12 15:06:07;;;;;;;3.45;1.60;;;28.90;75.10;;;;;;7362319;32;20130;-68
2022/07/12 15:10:09;;;;;;;3.17;1.90;;;28.90;74.20;;;;;;7361186;32;20509;-67
2022/07/12 15:14:11;;;;;;;3.10;1.48;;;28.90;76.50;;;;;;7362296;32;20607;-66
2022/07/12 15:18:13;;;;;;;2.08;1.20;;;29.00;73.50;;;;;;7360787;32;20139;-67
2022/07/12 15:22:15;;;;;;;2.67;1.50;;;29.30;73.30;;;;;;7361182;32;20133;-66
2022/07/12 15:26:17;;;;;;;1.73;1.48;;;29.00;71.90;;;;;;7361723;32;20168;-66
2022/07/12 15:30:27;;;;;;;3.95;2.00;;;28.90;75.20;;;;;;7360378;32;20161;-66
2022/07/12 15:34:29;;;;;;;2.12;1.30;;;28.80;77.70;;;;;;7360949;32;20520;-65
2022/07/12 15:38:31;;;;;;;2.97;1.20;;;28.60;75.70;;;;;;7360507;32;20460;-66
2022/07/12 15:42:33;;;;;;;1.02;0.80;;;28.70;71.60;;;;;;7360604;32;20213;-65
2022/07/12 15:46:35;;;;;;;1.48;1.10;;;28.60;72.40;;;;;;7360781;32;20637;-66
2022/07/12 15:50:36;;;;;;;2.90;1.00;;;28.40;72.10;;;;;;7358836;32;20479;-66
2022/07/12 15:54:38;;;;;;;1.42;1.00;;;28.30;73.10;;;;;;7361022;32;20156;-65
2022/07/12 15:58:42;;;;;;;1.98;1.45;;;28.30;71.40;;;;;;7340374;32;20116;-66
2022/07/12 16:02:44;;;;;;;2.28;1.17;;;28.20;71.80;;;;;;7358740;32;20133;-66
2022/07/12 16:06:46;;;;;;;2.35;1.30;;;28.10;75.40;;;;;;7359855;32;20475;-67
2022/07/12 16:10:49;;;;;;;3.25;1.55;;;28.20;72.80;;;;;;7358319;32;20168;-66
2022/07/12 16:14:50;;;;;;;3.92;1.40;;;28.50;72.00;;;;;;7359771;32;20130;-65
2022/07/12 16:18:52;;;;;;;2.53;1.50;;;28.60;73.80;;;;;;7359069;32;20130;-66
2022/07/12 16:22:54;;;;;;;2.33;1.30;;;28.60;74.00;;;;;;7359711;32;20168;-66
2022/07/12 16:26:56;;;;;;;3.65;1.40;;;28.40;73.00;;;;;;7359850;32;20659;-66
2022/07/12 16:30:58;;;;;;;6.90;1.48;;;28.20;72.40;;;;;;7359219;32;20164;-66
2022/07/12 16:35:00;;;;;;;1.65;1.30;;;28.00;74.20;;;;;;7360310;32;20163;-66
2022/07/12 16:39:02;;;;;;;2.85;1.45;;;27.80;76.00;;;;;;7359827;32;20115;-67
2022/07/12 16:43:04;;;;;;;1.90;1.42;;;27.50;77.40;;;;;;7359169;32;20191;-66
2022/07/12 16:47:05;;;;;;;2.85;1.27;;;27.60;75.20;;;;;;7359459;32;20158;-66
2022/07/12 16:51:22;;;;;;;1.77;1.20;;;27.40;74.40;;;;;;7358214;32;20212;-66
2022/07/12 16:55:24;;;;;;;3.12;1.60;;;27.40;77.00;;;;;;7359730;32;20112;-66
2022/07/12 16:59:26;;;;;;;6.35;1.73;;;27.20;81.70;;;;;;7336219;32;20398;-66
2022/07/12 17:03:27;;;;;;;1.92;1.52;;;27.20;80.90;;;;;;7358781;32;20579;-66
2022/07/12 17:07:29;;;;;;;2.85;1.73;;;27.10;83.60;;;;;;7358896;32;20459;-66
2022/07/12 17:11:31;;;;;;;3.05;1.52;;;27.00;81.90;;;;;;7359277;32;20107;-67
2022/07/12 17:15:33;;;;;;;2.78;1.60;;;26.90;88.70;;;;;;7359490;32;20247;-65
2022/07/12 17:19:35;;;;;;;2.25;1.77;;;27.10;85.70;;;;;;7357612;32;20489;-66
2022/07/12 17:23:36;;;;;;;3.72;1.67;;;26.80;83.60;;;;;;7358582;32;20567;-66
2022/07/12 17:27:58;;;;;;;5.47;1.67;;;26.70;90.40;;;;;;7358076;32;20143;-66
2022/07/12 17:32:00;;;;;;;6.20;2.05;;;26.70;93.70;;;;;;7359211;32;20115;-66
2022/07/12 17:36:02;;;;;;;4.05;1.65;;;26.70;96.20;;;;;;7358383;32;20115;-67
2022/07/12 17:40:04;;;;;;;1.95;1.55;;;26.50;98.00;;;;;;7357585;32;20139;-68
2022/07/12 17:44:07;;;;;;;2.50;1.87;;;26.30;98.50;;;;;;7358302;32;20252;-67
2022/07/12 17:48:08;;;;;;;2.92;1.90;;;26.20;99.00;;;;;;7357055;32;20130;-65
2022/07/12 17:52:10;;;;;;;2.58;1.67;;;26.10;99.90;;;;;;7358173;32;20448;-66
2022/07/12 17:56:12;;;;;;;2.92;2.15;;;26.00;99.90;;;;;;7341174;32;20123;-67
2022/07/12 18:00:21;;;;;;;5.10;2.33;;;25.90;99.90;;;;;;7357634;32;20182;-66
2022/07/12 18:04:24;;;;;;;3.58;1.80;;;25.80;99.90;;;;;;7358651;32;20175;-68
2022/07/12 18:08:25;;;;;;;2.87;1.90;;;25.70;99.90;;;;;;7356787;32;20179;-67
2022/07/12 18:18:00;;;;;;;5.28;2.00;;;25.50;99.90;;;;;;7358268;32;20122;-67
2022/07/12 18:21:09;;;;;;;3.70;2.03;;;25.30;99.90;;;;;;7331938;32;20176;-67
2022/07/12 18:25:12;;;;;;;4.60;2.03;;;25.20;99.90;;;;;;7332331;32;20206;-67
2022/07/12 18:29:14;;;;;;;4.53;2.45;;;25.20;99.90;;;;;;7345557;32;20123;-67
2022/07/12 18:33:16;;;;;;;4.07;2.00;;;25.00;99.90;;;;;;7357904;32;20211;-66
2022/07/12 18:37:18;;;;;;;4.32;2.22;;;24.80;99.90;;;;;;7356988;32;20107;-66
2022/07/12 18:41:19;;;;;;;5.90;2.60;;;24.70;99.90;;;;;;7356449;32;20131;-67
2022/07/12 18:45:22;;;;;;;5.72;2.62;;;24.60;99.90;;;;;;7357453;32;20127;-66
2022/07/12 18:49:24;;;;;;;5.87;2.28;;;24.40;99.90;;;;;;7356311;32;20186;-67
2022/07/12 18:53:26;;;;;;;5.22;2.40;;;24.30;99.90;;;;;;7353731;32;20119;-67
2022/07/12 18:57:28;;;;;;;4.97;2.60;;;24.00;99.90;;;;;;7343347;32;20222;-66
2022/07/12 19:01:30;;;;;;;3.87;2.42;;;23.90;99.90;;;;;;7357313;32;20107;-67
2022/07/12 19:05:32;;;;;;;4.37;2.47;;;23.70;99.90;;;;;;7358281;32;20134;-67
2022/07/12 19:09:39;;;;;;;4.18;2.47;;;23.50;99.90;;;;;;7356349;32;20108;-67
2022/07/12 19:13:40;;;;;;;6.53;2.45;;;23.40;99.90;;;;;;7357215;32;20199;-68
2022/07/12 19:17:42;;;;;;;6.15;2.72;;;23.30;99.90;;;;;;7356325;32;20131;-67
2022/07/12 19:21:44;;;;;;;8.55;2.90;;;23.10;99.90;;;;;;7357566;32;20215;-69
2022/07/12 19:25:46;;;;;;;3.75;2.70;;;23.00;99.90;;;;;;7358811;32;20175;-66
2022/07/12 19:29:48;;;;;;;6.25;2.83;;;22.80;99.90;;;;;;7361637;32;20115;-66
2022/07/12 19:33:50;;;;;;;4.53;2.80;;;22.70;99.90;;;;;;7361712;32;20107;-67
2022/07/12 19:37:51;;;;;;;5.55;2.85;;;22.60;99.90;;;;;;7361292;32;20171;-67
2022/07/12 19:41:53;;;;;;;6.25;2.75;;;22.50;99.90;;;;;;7361258;32;20620;-66
2022/07/12 19:45:56;;;;;;;13.43;3.20;;;22.40;99.90;;;;;;7361684;32;20467;-66
2022/07/12 19:49:58;;;;;;;7.32;2.70;;;22.20;99.90;;;;;;7360686;32;20465;-66
2022/07/12 19:53:59;;;;;;;4.95;3.17;;;22.10;99.90;;;;;;7360876;32;20198;-68
2022/07/12 19:58:01;;;;;;;5.40;3.10;;;22.00;99.90;;;;;;7350406;32;20178;-62
2022/07/12 20:02:03;;;;;;;6.53;3.05;;;21.90;99.90;;;;;;7360975;32;20214;-62
2022/07/12 20:06:05;;;;;;;5.22;3.17;;;21.80;99.90;;;;;;7361617;32;20572;-62
2022/07/12 20:10:07;;;;;;;11.30;3.45;;;21.70;99.90;;;;;;7360935;32;20175;-62
2022/07/12 20:14:09;;;;;;;9.13;3.87;;;21.60;99.90;;;;;;7360491;32;20285;-62
2022/07/12 20:18:11;;;;;;;6.10;3.28;;;21.50;99.90;;;;;;7340545;32;20196;-62
2022/07/12 20:22:13;;;;;;;7.45;3.60;;;21.40;99.90;;;;;;7360785;32;20659;-62
2022/07/12 20:26:15;;;;;;;4.78;3.08;;;21.30;99.90;;;;;;7360755;32;20103;-63
2022/07/12 20:30:17;;;;;;;6.10;3.20;;;21.20;99.90;;;;;;7359702;32;20590;-62
2022/07/12 20:34:29;;;;;;;5.78;3.58;;;21.10;99.90;;;;;;7360993;32;20232;-63
2022/07/12 20:38:31;;;;;;;5.45;3.53;;;21.00;99.90;;;;;;7358745;32;20518;-62
2022/07/12 20:42:33;;;;;;;9.77;3.50;;;21.00;99.90;;;;;;7360388;32;20198;-62
2022/07/12 20:46:34;;;;;;;6.87;3.58;;;20.90;99.90;;;;;;7360390;32;20155;-62
2022/07/12 20:50:36;;;;;;;5.37;3.40;;;20.80;99.90;;;;;;7359001;32;20111;-62
2022/07/12 20:54:38;;;;;;;4.85;3.70;;;20.70;99.90;;;;;;7360377;32;20167;-62
2022/07/12 20:58:40;;;;;;;6.12;3.60;;;20.50;99.90;;;;;;7346475;32;20699;-62
2022/07/12 21:02:42;;;;;;;3.65;3.10;;;20.40;99.90;;;;;;7360350;32;20119;-62
2022/07/12 21:06:44;;;;;;;4.18;3.15;;;20.40;99.90;;;;;;7360855;32;20333;-63
2022/07/12 21:10:46;;;;;;;10.07;3.90;;;20.30;99.90;;;;;;7359253;32;20140;-63
2022/07/12 21:14:47;;;;;;;4.55;3.20;;;20.10;99.90;;;;;;7360244;32;20139;-63
2022/07/12 21:18:49;;;;;;;6.90;3.22;;;20.00;99.90;;;;;;7358798;32;20543;-63
2022/07/12 21:22:51;;;;;;;5.60;3.10;;;20.00;99.90;;;;;;7359743;32;20182;-63